This is the latest recevied weather packets stored in our database for station/object Riedlingn. If no packets are shown the sender has not sent any weather packets the latest 10 day(s).
| Time | Temp. | Humidity | Pressure | Rain* | Wind** | Luminosity | Snow |
|---|---|---|---|---|---|---|---|
| 1777543330 | 11.11° C | 39% | 1030.9 hPa | 0 mm | - | - | - |
| 1777541531 | 10° C | 41% | 1031 hPa | 0 mm | - | - | - |
| 1777539731 | 9.44° C | 42% | 1031.2 hPa | 0 mm | - | - | - |
| 1777537942 | 8.33° C | 44% | 1031 hPa | 0 mm | - | - | - |
| 1777536137 | 7.78° C | 45% | 1031 hPa | 0 mm | - | - | - |
| 1777534332 | 6.67° C | 47% | 1030.9 hPa | 0 mm | - | - | - |
| 1777532532 | 6.11° C | 49% | 1030.7 hPa | 0 mm | - | - | - |
| 1777530736 | 5.56° C | 49% | 1030.7 hPa | 0 mm | - | - | - |
| 1777528931 | 5° C | 50% | 1030.6 hPa | 0 mm | - | - | - |
| 1777527131 | 4.44° C | 53% | 1030.5 hPa | 0 mm | - | - | - |
| 1777525331 | 4.44° C | 55% | 1030.1 hPa | 0 mm | - | - | - |
| 1777523532 | 3.89° C | 56% | 1030.1 hPa | 0 mm | - | - | - |
| 1777521732 | 4.44° C | 56% | 1030 hPa | 0 mm | - | - | - |
| 1777519931 | 4.44° C | 55% | 1029.9 hPa | 0 mm | - | - | - |
| 1777518132 | 5° C | 54% | 1029.8 hPa | 0 mm | - | - | - |
| 1777514532 | 5.56° C | 52% | 1029.8 hPa | 0 mm | - | - | - |
| 1777512731 | 6.11° C | 50% | 1029.5 hPa | 0 mm | - | - | - |
| 1777510932 | 6.67° C | 48% | 1029.3 hPa | 0 mm | - | - | - |
| 1777509129 | 7.22° C | 46% | 1029.2 hPa | 0 mm | - | - | - |
| 1777507330 | 7.78° C | 45% | 1029 hPa | 0 mm | - | - | - |
| 1777505529 | 8.33° C | 45% | 1029 hPa | 0 mm | - | - | - |
| 1777503729 | 8.89° C | 45% | 1028.8 hPa | 0 mm | - | - | - |
| 1777501931 | 9.44° C | 45% | 1028.5 hPa | 0 mm | - | - | - |
| 1777498329 | 10.56° C | 43% | 1028 hPa | 0 mm | - | - | - |
| 1777496530 | 10.56° C | 41% | 1027.7 hPa | 0 mm | - | - | - |
* Rain since midnight (hover to see other rain measurements)
** Current wind speed in m/s (hover to see current wind gust speed)